KANB/ANB METAR and TAF weather

Enter ICAO airport designator
Station Type Date Time Source
KANB METAR 2019/06/26 05:53 UTC NOAA

KANB 260553Z AUTO 00000KT 10SM BKN042 22/21 A3015 RMK AO2 SLP201 T02220211 10294 20222 403110200 51010


Station Type Date Time Source
KANB Decoded METAR 2019/06/26 05:53 UTC NOAA

ANNISTON METRO AIRPORT, AL, United States (KANB) 33-35N 085-51W 183M
Jun 26, 2019 - 01:53 AM EDT / 2019.06.26 0553 UTC
Wind: Calm:0
Visibility: 10 mile(s):0
Sky conditions: mostly cloudy
Temperature: 72.0 F (22.2 C)
Dew Point: 70.0 F (21.1 C)
Relative Humidity: 93%
Pressure (altimeter): 30.15 in. Hg (1020 hPa)
Pressure tendency: 0.03 inches (1.0 hPa) higher than three hours ago
ob: KANB 260553Z AUTO 00000KT 10SM BKN042 22/21 A3015 RMK AO2 SLP201 T02220211 10294 20222 403110200 51010
cycle: 6

Station Type Date Time Source
KANB TAF 2019/06/26 06:22 UTC NOAA

TAF KANB 260520Z 2606/2706 00000KT P6SM OVC250
FM261600 27008KT P6SM FEW035 BKN250 PROB30 2618/2624 6SM TSRA BR BKN050CB
FM270000 00000KT P6SM BKN250

Example: see airport list